Time;durP1;ratioP1;P1;durP2;ratioP2;P2;SDS_P1;SDS_P2;PMS_P1;PMS_P2;Temp;Humidity;BMP_temperature;BMP_pressure;BME280_temperature;BME280_humidity;BME280_pressure;Samples;Min_cycle;Max_cycle;Signal;HPM_P1;HPM_P2
2022/09/25 00:00:53;;;;;;;19.30;10.65;;;14.00;99.90;;;;;;5072752;28;20804;-53
2022/09/25 00:03:19;;;;;;;17.50;10.02;;;14.00;99.90;;;;;;5069222;28;20422;-53
2022/09/25 00:05:46;;;;;;;18.30;10.50;;;13.90;99.90;;;;;;5072435;28;20387;-52
2022/09/25 00:08:13;;;;;;;19.77;10.35;;;13.90;99.90;;;;;;5071655;28;20380;-53
2022/09/25 00:10:45;;;;;;;18.85;9.43;;;13.90;99.90;;;;;;5069740;28;20737;-53
2022/09/25 00:13:10;;;;;;;18.63;10.82;;;13.90;99.90;;;;;;5071486;28;20411;-52
2022/09/25 00:15:37;;;;;;;16.97;9.30;;;13.90;99.90;;;;;;5072137;28;20383;-53
2022/09/25 00:18:03;;;;;;;17.77;9.40;;;14.00;99.90;;;;;;5071459;28;20760;-53
2022/09/25 00:20:29;;;;;;;18.02;10.63;;;14.00;99.90;;;;;;5072407;28;20430;-53
2022/09/25 00:22:55;;;;;;;17.10;9.27;;;14.00;99.90;;;;;;5071969;28;21302;-52
2022/09/25 00:25:21;;;;;;;17.88;9.40;;;14.00;99.90;;;;;;5071516;28;21018;-53
2022/09/25 00:27:49;;;;;;;17.13;9.30;;;14.00;99.90;;;;;;5071882;28;20423;-53
2022/09/25 00:30:14;;;;;;;19.05;10.30;;;13.90;99.90;;;;;;5070981;28;20486;-53
2022/09/25 00:32:40;;;;;;;16.33;9.30;;;13.90;99.90;;;;;;5071261;28;20580;-52
2022/09/25 00:35:06;;;;;;;17.73;10.18;;;13.90;99.90;;;;;;5070388;28;20388;-53
2022/09/25 00:37:33;;;;;;;17.17;9.03;;;14.00;99.90;;;;;;5071269;28;20387;-52
2022/09/25 00:39:58;;;;;;;15.73;9.25;;;14.00;99.90;;;;;;5069220;28;20738;-52
2022/09/25 00:42:24;;;;;;;19.10;9.77;;;14.00;99.90;;;;;;5052997;28;20379;-52
2022/09/25 00:44:56;;;;;;;15.00;8.65;;;14.00;99.90;;;;;;5071545;28;20853;-52
2022/09/25 00:47:42;;;;;;;16.83;9.20;;;14.00;99.90;;;;;;5068374;28;20404;-52
2022/09/25 00:50:18;;;;;;;18.10;9.30;;;14.00;99.90;;;;;;5069685;28;20416;-53
2022/09/25 00:52:44;;;;;;;15.97;8.90;;;14.00;99.90;;;;;;5069774;28;20492;-52
2022/09/25 00:55:11;;;;;;;15.23;8.55;;;14.10;99.90;;;;;;5070758;28;20384;-53
2022/09/25 00:57:39;;;;;;;15.68;8.90;;;14.00;99.90;;;;;;5071263;28;20470;-52
2022/09/25 01:00:09;;;;;;;15.27;8.15;;;13.80;99.90;;;;;;5070727;28;21014;-53
2022/09/25 01:02:51;;;;;;;15.57;9.20;;;13.80;99.90;;;;;;5070944;28;20464;-52
2022/09/25 01:05:26;;;;;;;15.17;8.80;;;13.70;99.90;;;;;;5067704;28;20431;-52
2022/09/25 01:07:55;;;;;;;16.73;8.57;;;13.60;99.90;;;;;;5071214;28;20390;-52
2022/09/25 01:10:21;;;;;;;16.05;9.48;;;13.70;99.90;;;;;;5069482;28;20410;-53
2022/09/25 01:12:49;;;;;;;15.10;8.60;;;13.70;99.90;;;;;;5070804;28;20764;-52
2022/09/25 01:15:18;;;;;;;16.15;8.35;;;13.60;99.90;;;;;;5070152;28;20471;-52
2022/09/25 01:18:11;;;;;;;16.13;8.18;;;13.60;99.90;;;;;;5070702;28;20458;-53
2022/09/25 01:21:10;;;;;;;15.13;8.77;;;13.60;99.90;;;;;;5070526;28;20744;-52
2022/09/25 01:23:41;;;;;;;18.88;8.73;;;13.50;99.90;;;;;;5022692;28;20400;-52
2022/09/25 01:26:30;;;;;;;17.67;10.00;;;13.50;99.90;;;;;;5070016;28;20438;-53
2022/09/25 01:29:18;;;;;;;16.83;9.45;;;13.60;99.90;;;;;;5070014;28;20403;-52
2022/09/25 01:32:04;;;;;;;15.55;8.77;;;13.60;99.90;;;;;;5068715;28;20432;-52
2022/09/25 01:34:50;;;;;;;17.70;9.43;;;13.60;99.90;;;;;;5069554;28;20904;-52
2022/09/25 01:37:28;;;;;;;15.63;8.48;;;13.60;99.90;;;;;;5059968;28;20400;-52
2022/09/25 01:40:10;;;;;;;18.47;9.57;;;13.70;99.90;;;;;;5070394;28;20432;-53
2022/09/25 01:42:49;;;;;;;17.35;9.70;;;13.70;99.90;;;;;;5070294;28;20387;-53
2022/09/25 01:45:50;;;;;;;15.98;8.98;;;13.70;99.90;;;;;;5069483;28;20384;-53
2022/09/25 01:48:20;;;;;;;18.08;9.18;;;13.70;99.90;;;;;;5062898;28;20408;-52
2022/09/25 01:51:07;;;;;;;17.35;8.80;;;13.70;99.90;;;;;;5070237;28;20376;-52
2022/09/25 01:53:41;;;;;;;18.02;9.75;;;13.70;99.90;;;;;;5069409;28;20537;-52
2022/09/25 01:56:15;;;;;;;18.00;9.57;;;13.80;99.90;;;;;;5069547;28;20533;-53
2022/09/25 01:58:50;;;;;;;17.10;9.10;;;13.90;99.90;;;;;;5067704;28;20845;-52
2022/09/25 02:01:30;;;;;;;16.95;9.77;;;13.80;99.90;;;;;;5069178;28;20466;-52
2022/09/25 02:04:12;;;;;;;17.42;9.50;;;13.90;99.90;;;;;;5070029;28;20379;-52
2022/09/25 02:06:41;;;;;;;17.00;9.30;;;13.90;99.90;;;;;;5067188;28;20380;-52
2022/09/25 02:09:12;;;;;;;18.27;9.60;;;13.90;99.90;;;;;;5069096;28;20864;-53
2022/09/25 02:11:53;;;;;;;16.35;9.27;;;14.00;99.90;;;;;;5052721;28;20380;-52
2022/09/25 02:14:38;;;;;;;18.30;9.10;;;14.00;99.90;;;;;;5065930;28;20408;-53
2022/09/25 02:17:09;;;;;;;16.73;8.70;;;14.10;99.90;;;;;;5067334;28;20438;-53
2022/09/25 02:22:29;;;;;;;18.27;9.82;;;14.10;99.90;;;;;;5063770;28;20407;-52
2022/09/25 02:25:08;;;;;;;16.35;9.40;;;14.00;99.90;;;;;;5069377;28;20384;-52
2022/09/25 02:27:34;;;;;;;16.38;9.30;;;14.10;99.90;;;;;;5069672;28;20391;-52
2022/09/25 02:30:00;;;;;;;17.03;9.33;;;14.10;99.90;;;;;;5069158;28;20402;-53
2022/09/25 02:32:30;;;;;;;17.45;9.18;;;14.20;99.90;;;;;;5069401;28;20479;-52
2022/09/25 02:34:57;;;;;;;17.95;10.00;;;14.10;99.90;;;;;;5069600;28;20480;-52
2022/09/25 02:37:23;;;;;;;14.68;8.48;;;14.10;99.90;;;;;;5068788;28;20376;-53
2022/09/25 02:39:53;;;;;;;17.23;8.90;;;14.00;99.90;;;;;;5069504;28;20386;-52
2022/09/25 02:42:43;;;;;;;15.30;8.60;;;14.00;99.90;;;;;;5066174;28;20514;-52
2022/09/25 02:45:50;;;;;;;16.55;8.32;;;14.00;99.90;;;;;;5067400;28;20857;-52
2022/09/25 02:48:24;;;;;;;15.40;7.93;;;13.90;99.90;;;;;;4968558;28;20410;-53
2022/09/25 02:51:17;;;;;;;14.35;7.88;;;13.90;99.90;;;;;;5069460;28;20397;-52
2022/09/25 02:54:02;;;;;;;18.60;9.07;;;14.00;99.90;;;;;;5067284;28;20444;-52
2022/09/25 02:56:32;;;;;;;15.40;8.70;;;14.00;99.90;;;;;;5067916;28;20419;-52
2022/09/25 02:59:20;;;;;;;17.40;8.40;;;14.00;99.90;;;;;;5066879;28;20871;-52
2022/09/25 03:01:46;;;;;;;17.27;9.25;;;14.00;99.90;;;;;;5067189;28;20400;-53
2022/09/25 03:04:15;;;;;;;13.77;8.05;;;14.10;99.90;;;;;;5068105;28;20395;-53
2022/09/25 03:06:42;;;;;;;16.50;8.32;;;14.00;99.90;;;;;;5066873;28;20392;-53
2022/09/25 03:09:09;;;;;;;15.60;8.88;;;14.10;99.90;;;;;;5068551;28;20372;-53
2022/09/25 03:11:41;;;;;;;13.35;8.02;;;14.10;99.90;;;;;;5069150;28;20486;-53
2022/09/25 03:14:06;;;;;;;15.05;8.50;;;14.10;99.90;;;;;;5068335;28;20444;-53
2022/09/25 03:16:43;;;;;;;14.00;8.20;;;14.20;99.90;;;;;;5069257;28;20433;-52
2022/09/25 03:19:09;;;;;;;15.68;9.00;;;14.10;99.90;;;;;;5067004;28;20864;-52
2022/09/25 03:21:35;;;;;;;15.50;8.40;;;14.10;99.90;;;;;;5068944;28;20463;-52
2022/09/25 03:24:00;;;;;;;14.35;8.60;;;14.10;99.90;;;;;;5069075;28;20387;-52
2022/09/25 03:26:26;;;;;;;16.87;8.80;;;14.00;99.90;;;;;;5068649;28;20471;-52
2022/09/25 03:28:52;;;;;;;16.50;8.48;;;14.10;99.90;;;;;;5068567;28;20523;-53
2022/09/25 03:31:18;;;;;;;15.70;8.85;;;14.00;99.90;;;;;;5068163;28;20376;-52
2022/09/25 03:33:45;;;;;;;14.50;8.27;;;13.90;99.90;;;;;;5071091;28;20407;-52
2022/09/25 03:36:17;;;;;;;18.92;9.48;;;14.00;99.90;;;;;;5072197;28;20491;-52
2022/09/25 03:38:45;;;;;;;17.57;9.73;;;13.90;99.90;;;;;;5071005;28;20420;-53
2022/09/25 03:41:12;;;;;;;17.17;9.23;;;13.90;99.90;;;;;;5071939;28;20848;-53
2022/09/25 03:43:40;;;;;;;18.05;9.73;;;14.00;99.90;;;;;;5072717;28;20456;-52
2022/09/25 03:46:09;;;;;;;17.83;9.65;;;14.00;99.90;;;;;;5072026;28;20382;-53
2022/09/25 03:48:35;;;;;;;18.00;10.18;;;13.90;99.90;;;;;;5072615;28;20395;-53
2022/09/25 03:51:01;;;;;;;19.15;9.98;;;13.90;99.90;;;;;;5072845;28;20380;-52
2022/09/25 03:53:32;;;;;;;19.20;10.70;;;13.90;99.90;;;;;;5072065;28;20560;-52
2022/09/25 03:55:58;;;;;;;17.58;10.40;;;14.00;99.90;;;;;;5072508;28;20387;-53
2022/09/25 03:58:24;;;;;;;18.20;9.70;;;14.00;99.90;;;;;;5071924;28;21062;-52
2022/09/25 04:00:50;;;;;;;18.10;9.82;;;14.00;99.90;;;;;;5072158;28;20388;-52
2022/09/25 04:03:16;;;;;;;17.50;9.93;;;13.90;99.90;;;;;;5071292;28;20383;-53
2022/09/25 04:05:42;;;;;;;17.97;9.60;;;14.00;99.90;;;;;;5072453;28;20429;-52
2022/09/25 04:08:08;;;;;;;15.48;9.27;;;14.00;99.90;;;;;;5071592;28;20383;-53
2022/09/25 04:10:39;;;;;;;18.35;10.07;;;14.00;99.90;;;;;;5054643;28;20384;-52
2022/09/25 04:13:06;;;;;;;15.25;9.55;;;14.00;99.90;;;;;;5071975;28;20407;-53
2022/09/25 04:15:32;;;;;;;17.27;9.23;;;14.00;99.90;;;;;;5072409;28;20388;-52
2022/09/25 04:17:58;;;;;;;16.90;9.48;;;14.10;99.90;;;;;;5072182;28;20384;-52
2022/09/25 04:20:23;;;;;;;18.80;9.63;;;14.10;99.90;;;;;;5071468;28;20463;-52
2022/09/25 04:22:49;;;;;;;18.20;10.00;;;14.20;99.90;;;;;;5072138;28;20438;-52
2022/09/25 04:25:15;;;;;;;15.05;9.20;;;14.20;99.90;;;;;;5071001;28;20393;-53
2022/09/25 04:27:44;;;;;;;16.97;9.53;;;14.20;99.90;;;;;;5072076;28;20391;-52
2022/09/25 04:30:10;;;;;;;15.80;8.73;;;14.20;99.90;;;;;;5070868;28;20437;-53
2022/09/25 04:35:20;;;;;;;18.98;10.18;;;14.10;99.90;;;;;;5068029;28;20428;-52
2022/09/25 04:37:45;;;;;;;18.20;9.70;;;14.00;99.90;;;;;;5071998;28;20387;-52
2022/09/25 04:40:11;;;;;;;16.17;8.87;;;14.10;99.90;;;;;;5067890;28;20466;-53
2022/09/25 04:42:37;;;;;;;20.48;11.05;;;14.10;99.90;;;;;;5071738;28;20741;-52
2022/09/25 04:45:03;;;;;;;18.47;10.43;;;14.10;99.90;;;;;;5070701;28;20380;-52
2022/09/25 04:47:31;;;;;;;19.98;10.40;;;14.00;99.90;;;;;;5070930;28;20467;-53
2022/09/25 04:49:57;;;;;;;21.73;10.55;;;14.10;99.90;;;;;;5071582;28;20474;-53
2022/09/25 04:52:22;;;;;;;19.07;10.13;;;14.00;99.90;;;;;;5071052;28;20507;-52
2022/09/25 04:54:48;;;;;;;19.57;9.97;;;13.90;99.90;;;;;;5071405;28;20722;-52
2022/09/25 04:57:15;;;;;;;19.75;10.98;;;13.90;99.90;;;;;;5061064;28;20395;-52
2022/09/25 04:59:41;;;;;;;18.50;10.27;;;13.90;99.90;;;;;;5071696;28;20419;-52
2022/09/25 05:02:07;;;;;;;18.50;10.33;;;13.90;99.90;;;;;;5070666;28;20423;-53
2022/09/25 05:04:32;;;;;;;21.70;10.48;;;13.90;99.90;;;;;;5071282;28;20784;-52
2022/09/25 05:06:58;;;;;;;18.93;10.37;;;13.80;99.90;;;;;;5071433;28;20410;-52
2022/09/25 05:09:23;;;;;;;19.70;11.10;;;13.80;99.90;;;;;;5070419;28;20376;-53
2022/09/25 05:11:49;;;;;;;20.17;11.05;;;13.80;99.90;;;;;;5070990;28;20410;-52
2022/09/25 05:14:15;;;;;;;21.48;11.88;;;13.80;99.90;;;;;;5052448;28;20520;-53
2022/09/25 05:16:41;;;;;;;20.20;11.48;;;13.70;99.90;;;;;;5071147;28;20877;-52
2022/09/25 05:19:07;;;;;;;23.33;11.90;;;13.70;99.90;;;;;;5070502;28;20390;-53
2022/09/25 05:21:33;;;;;;;22.27;11.98;;;13.70;99.90;;;;;;5070446;28;20400;-52
2022/09/25 05:23:58;;;;;;;20.50;11.20;;;13.80;99.90;;;;;;5071018;28;20448;-52
2022/09/25 05:26:27;;;;;;;18.52;10.18;;;13.80;99.90;;;;;;5070299;28;20436;-53
2022/09/25 05:28:53;;;;;;;22.35;11.80;;;13.80;99.90;;;;;;5071188;28;20998;-53
2022/09/25 05:31:18;;;;;;;21.17;11.27;;;13.80;99.90;;;;;;5070785;28;20466;-52
2022/09/25 05:33:44;;;;;;;21.85;12.10;;;13.90;99.90;;;;;;5070987;28;20725;-52
2022/09/25 05:36:09;;;;;;;21.87;11.40;;;13.80;99.90;;;;;;5063816;28;20401;-53
2022/09/25 05:38:37;;;;;;;24.50;12.30;;;13.90;99.90;;;;;;5049006;28;20401;-52
2022/09/25 05:41:05;;;;;;;22.35;11.82;;;13.90;99.90;;;;;;5066799;28;20467;-53
2022/09/25 05:43:32;;;;;;;22.33;11.00;;;13.90;99.90;;;;;;5069943;28;20641;-53
2022/09/25 05:45:58;;;;;;;21.25;11.30;;;13.80;99.90;;;;;;5070554;28;20383;-53
2022/09/25 05:48:24;;;;;;;19.38;10.20;;;13.80;99.90;;;;;;5069578;28;20497;-53
2022/09/25 05:50:54;;;;;;;19.33;10.07;;;13.90;99.90;;;;;;5052439;28;20560;-53
2022/09/25 05:53:20;;;;;;;21.80;11.10;;;13.90;99.90;;;;;;5067639;28;20412;-53
2022/09/25 05:55:53;;;;;;;20.15;10.32;;;14.00;99.90;;;;;;5070006;28;20376;-54
2022/09/25 05:58:20;;;;;;;18.33;10.60;;;14.00;99.90;;;;;;5064381;28;20954;-53
2022/09/25 06:00:47;;;;;;;18.63;11.18;;;14.00;99.90;;;;;;5070344;28;20399;-53
2022/09/25 06:03:13;;;;;;;23.90;11.10;;;14.10;99.90;;;;;;5068189;28;20388;-54
2022/09/25 06:05:40;;;;;;;19.05;10.40;;;14.10;99.90;;;;;;5063431;28;20828;-53
2022/09/25 06:08:06;;;;;;;19.50;10.60;;;13.70;99.90;;;;;;5070096;28;20449;-54
2022/09/25 06:10:32;;;;;;;18.70;10.30;;;14.30;99.90;;;;;;5069529;28;20379;-53
2022/09/25 06:12:59;;;;;;;20.45;11.23;;;14.40;99.90;;;;;;5064091;28;20404;-53
2022/09/25 06:15:32;;;;;;;23.08;10.43;;;14.30;99.90;;;;;;5063723;28;20408;-53
2022/09/25 06:17:58;;;;;;;19.17;10.75;;;14.30;99.90;;;;;;5067211;28;20737;-53
2022/09/25 06:20:24;;;;;;;20.08;10.25;;;14.30;99.90;;;;;;5066408;28;20403;-54
2022/09/25 06:22:53;;;;;;;17.57;10.37;;;14.30;99.90;;;;;;5050655;28;20473;-53
2022/09/25 06:25:21;;;;;;;18.95;10.63;;;14.40;99.90;;;;;;5064674;28;20753;-53
2022/09/25 06:27:47;;;;;;;19.92;10.63;;;14.40;99.90;;;;;;5036257;28;20746;-53
2022/09/25 06:30:13;;;;;;;22.73;11.00;;;14.50;99.90;;;;;;5063867;28;20503;-54
2022/09/25 06:32:38;;;;;;;18.70;10.25;;;14.60;99.90;;;;;;5061440;28;20443;-54
2022/09/25 06:35:04;;;;;;;19.87;10.80;;;14.60;99.90;;;;;;5057284;28;20745;-54
2022/09/25 06:37:31;;;;;;;19.20;10.63;;;14.70;99.90;;;;;;5060938;28;21403;-53
2022/09/25 06:39:57;;;;;;;18.38;10.02;;;14.60;99.90;;;;;;5067388;28;20419;-53
2022/09/25 06:42:22;;;;;;;19.75;10.70;;;14.60;99.90;;;;;;5059124;28;20399;-54
2022/09/25 06:44:48;;;;;;;19.97;10.27;;;14.50;99.90;;;;;;5065007;28;20469;-53
2022/09/25 06:47:14;;;;;;;20.33;10.97;;;14.50;99.90;;;;;;5057930;28;20767;-54
2022/09/25 06:49:39;;;;;;;23.50;12.10;;;14.50;99.90;;;;;;5055276;28;20397;-54
2022/09/25 06:52:05;;;;;;;20.13;11.20;;;14.50;99.90;;;;;;5066461;28;20774;-54
2022/09/25 06:54:31;;;;;;;20.90;11.83;;;14.50;99.90;;;;;;5078499;28;20510;-54
2022/09/25 06:56:57;;;;;;;22.15;11.48;;;14.50;99.90;;;;;;5065261;28;20405;-54
2022/09/25 06:59:24;;;;;;;21.40;11.67;;;14.60;99.90;;;;;;5062343;28;20402;-54
2022/09/25 07:01:50;;;;;;;23.10;12.07;;;14.60;99.90;;;;;;5060286;28;20405;-54
2022/09/25 07:04:16;;;;;;;20.70;12.00;;;14.80;99.90;;;;;;5058844;28;20994;-54
2022/09/25 07:06:42;;;;;;;19.10;10.90;;;14.80;99.90;;;;;;5060019;28;20397;-54
2022/09/25 07:09:07;;;;;;;21.05;12.00;;;14.70;99.90;;;;;;5060401;28;20444;-54
2022/09/25 07:11:34;;;;;;;20.20;11.33;;;14.80;99.90;;;;;;5060588;28;20447;-54
2022/09/25 07:13:59;;;;;;;20.17;11.10;;;16.00;99.90;;;;;;5064549;28;20402;-54
2022/09/25 07:16:28;;;;;;;20.13;11.70;;;14.90;99.90;;;;;;5059176;28;21259;-54
2022/09/25 07:18:56;;;;;;;19.17;10.38;;;14.90;99.90;;;;;;5057709;28;20894;-54
2022/09/25 07:21:28;;;;;;;20.80;11.23;;;14.80;99.90;;;;;;5058592;28;20449;-54
2022/09/25 07:23:54;;;;;;;19.27;11.30;;;14.80;99.90;;;;;;5057245;28;20393;-54
2022/09/25 07:26:28;;;;;;;18.83;10.50;;;14.90;99.90;;;;;;5055692;28;20385;-54
2022/09/25 07:29:00;;;;;;;15.82;9.70;;;16.50;99.90;;;;;;5055450;28;20386;-54
2022/09/25 07:31:28;;;;;;;17.13;9.25;;;14.80;99.90;;;;;;5059195;28;20393;-54
2022/09/25 07:33:54;;;;;;;17.13;8.70;;;14.80;99.90;;;;;;5056952;28;20426;-54
2022/09/25 07:36:20;;;;;;;15.65;9.68;;;14.90;99.90;;;;;;5061670;28;20512;-54
2022/09/25 07:38:52;;;;;;;16.13;9.52;;;14.90;99.90;;;;;;5052844;28;20436;-54
2022/09/25 07:41:21;;;;;;;16.30;9.00;;;15.00;99.90;;;;;;5063600;28;20475;-54
2022/09/25 07:43:51;;;;;;;15.60;8.80;;;15.00;99.90;;;;;;5058616;28;20397;-54
2022/09/25 07:46:17;;;;;;;16.45;8.95;;;15.10;99.90;;;;;;5053321;28;20385;-54
2022/09/25 07:48:42;;;;;;;14.75;8.65;;;15.10;99.90;;;;;;5051046;28;20739;-54
2022/09/25 07:51:10;;;;;;;17.57;8.80;;;15.10;99.90;;;;;;5058571;28;20376;-54
2022/09/25 07:53:37;;;;;;;15.65;8.90;;;15.10;99.90;;;;;;5051101;28;20409;-54
2022/09/25 07:56:03;;;;;;;15.10;8.60;;;15.10;99.90;;;;;;5054096;28;20372;-54
2022/09/25 07:58:29;;;;;;;16.88;9.30;;;15.00;99.90;;;;;;5059726;28;20382;-54
2022/09/25 08:00:59;;;;;;;18.53;9.10;;;15.00;99.90;;;;;;5058552;28;20741;-54
2022/09/25 08:03:25;;;;;;;16.27;8.63;;;15.10;99.90;;;;;;5047250;28;20389;-54
2022/09/25 08:06:02;;;;;;;14.60;8.05;;;15.20;99.90;;;;;;5064356;28;20461;-54
2022/09/25 08:08:28;;;;;;;14.45;7.90;;;15.20;74.70;;;;;;5067826;28;20561;-54
2022/09/25 08:11:02;;;;;;;13.57;7.80;;;15.00;99.90;;;;;;5066184;28;20867;-54
2022/09/25 08:13:31;;;;;;;15.57;7.97;;;15.00;99.90;;;;;;5056618;28;21075;-54
2022/09/25 08:15:56;;;;;;;15.98;8.35;;;15.20;99.90;;;;;;5068949;28;20734;-54
2022/09/25 08:18:22;;;;;;;15.63;8.40;;;15.20;99.90;;;;;;5064089;28;20409;-54
2022/09/25 08:20:48;;;;;;;15.07;8.75;;;15.30;99.90;;;;;;5051904;28;20455;-54
2022/09/25 08:23:13;;;;;;;15.32;8.55;;;15.40;99.90;;;;;;5064609;28;20443;-54
2022/09/25 08:25:39;;;;;;;15.13;8.13;;;15.60;99.90;;;;;;5072123;28;20376;-54
2022/09/25 08:28:05;;;;;;;15.67;8.03;;;15.90;99.90;;;;;;5072181;28;20379;-54
2022/09/25 08:30:30;;;;;;;15.63;8.13;;;15.80;19.80;;;;;;5070974;28;20838;-54
2022/09/25 08:32:56;;;;;;;15.73;8.67;;;15.70;1.00;;;;;;5072014;28;20968;-54
2022/09/25 08:35:22;;;;;;;15.32;7.93;;;15.80;1.00;;;;;;5063985;28;20399;-54
2022/09/25 08:37:47;;;;;;;14.98;7.72;;;15.80;1.00;;;;;;5051626;28;20784;-54
2022/09/25 08:40:27;;;;;;;15.60;8.10;;;15.90;1.00;;;;;;5065063;28;20372;-54
2022/09/25 08:42:54;;;;;;;17.52;7.85;;;15.90;1.00;;;;;;5071552;28;20833;-54
2022/09/25 08:51:20;;;;;;;17.05;8.82;;;15.80;1.00;;;;;;5066974;28;20424;-59
2022/09/25 08:53:46;;;;;;;15.88;7.82;;;15.90;1.00;;;;;;5071365;28;20896;-59
2022/09/25 08:56:18;;;;;;;16.00;8.07;;;15.90;1.00;;;;;;5070540;28;20384;-58
2022/09/25 08:59:03;;;;;;;16.20;8.98;;;15.90;1.00;;;;;;5070631;28;20857;-59
2022/09/25 09:01:40;;;;;;;15.77;8.27;;;15.80;1.00;;;;;;5066347;28;20861;-58
2022/09/25 09:04:18;;;;;;;16.07;8.50;;;15.80;1.00;;;;;;5070124;28;20959;-60
2022/09/25 09:06:46;;;;;;;17.13;9.20;;;15.70;1.00;;;;;;5058126;28;20480;-60
2022/09/25 09:09:24;;;;;;;18.95;10.90;;;15.90;1.00;;;;;;5065396;28;20410;-59
2022/09/25 09:12:11;;;;;;;21.33;10.07;;;15.90;1.00;;;;;;5071471;28;20455;-59
2022/09/25 09:14:46;;;;;;;16.88;10.00;;;15.80;1.00;;;;;;5061910;28;20407;-60
2022/09/25 09:17:22;;;;;;;17.25;9.45;;;15.60;1.00;;;;;;5067091;28;20862;-59
2022/09/25 09:19:53;;;;;;;20.73;11.10;;;15.50;1.00;;;;;;5051760;28;20434;-60
2022/09/25 09:22:36;;;;;;;16.63;9.93;;;15.30;1.00;;;;;;5050519;28;20377;-59
2022/09/25 09:25:16;;;;;;;20.10;10.60;;;15.30;1.00;;;;;;5051445;28;20386;-60
2022/09/25 09:28:22;;;;;;;18.70;10.30;;;15.20;18.70;;;;;;5051057;28;20766;-60
2022/09/25 09:31:18;;;;;;;21.95;11.13;;;15.30;21.80;;;;;;5058083;28;20441;-59
2022/09/25 09:33:52;;;;;;;21.15;11.75;;;15.30;92.20;;;;;;5053309;28;20430;-54
2022/09/25 09:36:53;;;;;;;24.45;14.05;;;15.40;50.80;;;;;;5072224;28;20470;-54
2022/09/25 09:39:30;;;;;;;28.40;16.58;;;15.50;79.10;;;;;;5052513;28;20396;-53
2022/09/25 09:42:25;;;;;;;25.65;12.55;;;15.70;56.80;;;;;;5072776;28;20408;-54
2022/09/25 09:44:57;;;;;;;20.73;11.43;;;15.90;1.00;;;;;;5086865;28;20405;-54
2022/09/25 09:47:38;;;;;;;21.63;11.43;;;15.90;1.00;;;;;;5089834;28;20481;-54
2022/09/25 09:50:15;;;;;;;20.90;11.30;;;16.10;1.00;;;;;;5090564;28;21201;-54
2022/09/25 09:52:43;;;;;;;18.90;11.25;;;16.20;1.00;;;;;;5090745;28;20382;-54
2022/09/25 09:55:25;;;;;;;21.90;12.23;;;16.10;1.00;;;;;;5090171;28;20386;-54
2022/09/25 09:57:53;;;;;;;22.23;11.88;;;16.10;1.00;;;;;;5090657;28;20855;-54
2022/09/25 10:00:21;;;;;;;19.55;11.10;;;16.20;1.00;;;;;;5071286;28;20490;-54
2022/09/25 10:03:00;;;;;;;20.23;11.65;;;16.40;1.00;;;;;;5070239;28;20396;-54
2022/09/25 10:05:32;;;;;;;20.63;10.88;;;16.60;1.00;;;;;;5069430;28;20406;-55
2022/09/25 10:07:58;;;;;;;21.60;10.70;;;16.70;1.00;;;;;;5051225;28;20437;-54
2022/09/25 10:10:39;;;;;;;21.02;10.90;;;16.50;99.90;;;;;;5061148;28;20868;-54
2022/09/25 10:13:31;;;;;;;21.57;12.47;;;16.40;1.00;;;;;;5086339;28;20490;-54
2022/09/25 10:16:13;;;;;;;20.63;11.57;;;16.70;1.00;;;;;;5069668;28;20437;-54
2022/09/25 10:18:45;;;;;;;21.17;11.07;;;16.90;99.90;;;;;;5048557;28;20857;-55
2022/09/25 10:21:20;;;;;;;19.30;11.23;;;16.90;99.90;;;;;;5049509;28;20389;-54
2022/09/25 10:23:47;;;;;;;20.95;11.90;;;16.70;99.90;;;;;;5049572;28;20716;-54
2022/09/25 10:26:37;;;;;;;23.80;12.05;;;16.50;99.90;;;;;;5059744;28;20545;-55
2022/09/25 10:29:08;;;;;;;22.67;11.60;;;16.40;99.90;;;;;;5057557;28;20421;-54
2022/09/25 10:31:38;;;;;;;20.52;11.32;;;16.20;1.00;;;;;;5061489;28;20842;-54
2022/09/25 10:34:16;;;;;;;22.83;12.18;;;16.00;1.00;;;;;;5059056;28;20457;-54
2022/09/25 10:36:48;;;;;;;22.77;12.10;;;15.90;1.00;;;;;;5059894;28;20765;-54
2022/09/25 10:39:41;;;;;;;23.23;14.05;;;15.80;1.00;;;;;;5060293;28;20874;-55
2022/09/25 10:42:44;;;;;;;24.80;11.27;;;15.70;1.00;;;;;;5050805;28;20749;-54
2022/09/25 10:45:29;;;;;;;24.67;13.80;;;15.60;1.00;;;;;;5062241;28;20384;-54
2022/09/25 10:50:41;;;;;;;23.33;12.45;;;15.40;1.00;;;;;;5058703;28;20818;-53
2022/09/25 10:53:27;;;;;;;22.37;12.70;;;15.20;8.40;;;;;;5034869;28;20425;-54
2022/09/25 10:56:00;;;;;;;22.52;12.50;;;15.20;55.20;;;;;;5056579;28;20405;-54
2022/09/25 10:58:37;;;;;;;25.83;14.30;;;15.50;10.20;;;;;;5063457;28;20429;-54
2022/09/25 11:01:05;;;;;;;24.08;13.20;;;15.70;1.00;;;;;;5061392;28;20406;-54
2022/09/25 11:03:38;;;;;;;23.10;12.73;;;15.90;1.00;;;;;;5068296;28;20376;-54
2022/09/25 11:06:08;;;;;;;22.80;12.37;;;16.30;1.00;;;;;;5072943;28;20951;-54
2022/09/25 11:08:38;;;;;;;25.60;13.20;;;16.40;1.00;;;;;;5068721;28;21014;-54
2022/09/25 11:11:07;;;;;;;22.45;12.60;;;16.60;1.00;;;;;;5056675;28;20382;-54
2022/09/25 11:13:45;;;;;;;22.90;12.40;;;16.60;1.00;;;;;;5055486;28;20496;-54
2022/09/25 11:16:11;;;;;;;23.08;13.27;;;16.60;1.00;;;;;;5078680;28;20401;-54
2022/09/25 11:18:49;;;;;;;23.70;13.70;;;16.40;1.00;;;;;;5068390;28;20409;-54
2022/09/25 11:21:28;;;;;;;26.27;14.07;;;16.40;1.00;;;;;;5068350;28;20379;-55
2022/09/25 11:23:53;;;;;;;21.85;12.07;;;16.60;1.00;;;;;;5056233;28;20888;-54
2022/09/25 11:26:23;;;;;;;21.10;12.33;;;16.80;1.00;;;;;;5057250;28;20405;-54
2022/09/25 11:29:14;;;;;;;23.00;13.10;;;16.80;99.90;;;;;;5048598;28;20397;-55
2022/09/25 11:31:51;;;;;;;23.42;13.98;;;16.80;99.90;;;;;;5054564;28;20761;-54
2022/09/25 11:34:39;;;;;;;24.80;13.25;;;16.90;99.90;;;;;;5052144;28;20884;-55
2022/09/25 11:37:38;;;;;;;21.80;12.63;;;17.00;40.20;;;;;;5065615;28;20525;-54
2022/09/25 11:43:08;;;;;;;24.27;13.60;;;17.30;1.00;;;;;;5061405;28;20918;-54
2022/09/25 11:45:54;;;;;;;25.17;12.40;;;17.60;99.90;;;;;;5036942;28;20530;-54
2022/09/25 11:48:29;;;;;;;21.17;12.00;;;17.70;99.90;;;;;;5055599;28;20404;-54
2022/09/25 11:51:21;;;;;;;20.58;11.23;;;18.20;1.00;;;;;;5059999;28;20408;-55
2022/09/25 11:54:08;;;;;;;23.13;11.35;;;18.20;1.00;;;;;;5055262;28;20501;-54
2022/09/25 11:56:43;;;;;;;19.27;11.50;;;17.70;1.00;;;;;;5066656;28;20729;-54
2022/09/25 11:59:15;;;;;;;21.70;11.20;;;17.30;99.90;;;;;;5059834;28;20435;-54
2022/09/25 12:02:14;;;;;;;18.23;10.70;;;17.20;99.90;;;;;;5062002;28;20403;-54
2022/09/25 12:04:43;;;;;;;17.58;10.00;;;16.80;99.90;;;;;;5058713;28;20427;-54
2022/09/25 12:07:26;;;;;;;19.77;9.90;;;16.80;1.00;;;;;;5076113;28;20871;-54
2022/09/25 12:10:32;;;;;;;15.05;8.45;;;16.70;99.90;;;;;;5073086;28;20516;-54
2022/09/25 12:13:21;;;;;;;12.57;6.47;;;16.60;99.90;;;;;;5055005;28;20415;-54
2022/09/25 12:16:19;;;;;;;17.27;8.43;;;16.60;1.00;;;;;;5060196;28;20402;-54
2022/09/25 12:19:22;;;;;;;16.13;8.35;;;16.90;99.90;;;;;;5063979;28;20381;-54
2022/09/25 12:22:05;;;;;;;14.52;8.18;;;16.70;48.20;;;;;;5074321;28;20386;-55
2022/09/25 12:25:00;;;;;;;16.40;8.55;;;16.60;1.00;;;;;;5066796;28;20464;-54
2022/09/25 12:27:25;;;;;;;12.77;7.20;;;16.50;1.00;;;;;;5037256;28;21298;-54
2022/09/25 12:30:12;;;;;;;12.40;6.37;;;16.60;99.90;;;;;;5085653;28;20902;-54
2022/09/25 12:33:06;;;;;;;11.57;5.72;;;16.70;99.90;;;;;;5080022;28;20442;-54
2022/09/25 12:35:37;;;;;;;11.50;5.80;;;16.80;1.00;;;;;;5070986;28;20403;-54
2022/09/25 12:38:43;;;;;;;10.60;4.47;;;17.20;99.90;;;;;;5064790;28;20411;-54
2022/09/25 12:41:20;;;;;;;10.10;5.20;;;17.80;99.90;;;;;;5065078;28;20483;-54
2022/09/25 12:44:11;;;;;;;11.32;5.10;;;17.80;99.90;;;;;;5069207;28;20388;-54
2022/09/25 12:46:56;;;;;;;10.50;5.70;;;17.80;1.00;;;;;;5066520;28;20757;-54
2022/09/25 12:49:32;;;;;;;11.88;6.13;;;17.90;1.00;;;;;;5063124;28;20740;-54
2022/09/25 12:52:10;;;;;;;11.75;6.05;;;17.90;99.90;;;;;;5065643;28;20380;-54
2022/09/25 12:54:49;;;;;;;11.60;6.30;;;17.80;1.00;;;;;;5069960;28;20900;-54
2022/09/25 12:57:25;;;;;;;12.43;6.63;;;17.60;1.00;;;;;;5069674;28;20464;-55
2022/09/25 12:59:56;;;;;;;12.73;7.20;;;17.60;99.90;;;;;;5070586;28;20465;-54
2022/09/25 13:02:36;;;;;;;14.00;7.53;;;17.60;99.90;;;;;;5067245;28;20399;-55
2022/09/25 13:05:26;;;;;;;15.80;8.30;;;17.80;99.90;;;;;;5067273;28;20781;-54
2022/09/25 13:08:14;;;;;;;11.95;7.00;;;17.70;99.90;;;;;;5070193;28;20433;-54
2022/09/25 13:10:56;;;;;;;12.10;6.80;;;17.70;99.90;;;;;;5070700;28;20380;-54
2022/09/25 13:13:25;;;;;;;14.47;7.70;;;17.30;99.90;;;;;;5066869;28;20415;-55
2022/09/25 13:15:56;;;;;;;13.87;7.17;;;16.90;99.90;;;;;;5070015;28;20447;-54
2022/09/25 13:18:24;;;;;;;13.90;7.45;;;16.90;99.90;;;;;;5067079;28;21385;-55